sensor_id;sensor_type;location;lat;lon;timestamp;P1;durP1;ratioP1;P2;durP2;ratioP2
48241;SDS011;34041;51.812;4.622;2023-03-19T00:01:38;4.20;;;1.52;;
48241;SDS011;34041;51.812;4.622;2023-03-19T00:04:39;3.13;;;1.98;;
48241;SDS011;34041;51.812;4.622;2023-03-19T00:07:39;3.72;;;2.03;;
48241;SDS011;34041;51.812;4.622;2023-03-19T00:10:39;2.72;;;1.67;;
48241;SDS011;34041;51.812;4.622;2023-03-19T00:13:40;2.10;;;1.40;;
48241;SDS011;34041;51.812;4.622;2023-03-19T00:16:40;2.60;;;1.45;;
48241;SDS011;34041;51.812;4.622;2023-03-19T00:19:40;3.17;;;1.43;;
48241;SDS011;34041;51.812;4.622;2023-03-19T00:22:40;3.92;;;2.00;;
48241;SDS011;34041;51.812;4.622;2023-03-19T00:25:41;5.18;;;1.92;;
48241;SDS011;34041;51.812;4.622;2023-03-19T00:28:41;3.43;;;1.80;;
48241;SDS011;34041;51.812;4.622;2023-03-19T00:31:41;3.42;;;2.25;;
48241;SDS011;34041;51.812;4.622;2023-03-19T00:34:42;3.20;;;2.10;;
48241;SDS011;34041;51.812;4.622;2023-03-19T00:37:42;3.43;;;1.63;;
48241;SDS011;34041;51.812;4.622;2023-03-19T00:40:42;3.72;;;1.85;;
48241;SDS011;34041;51.812;4.622;2023-03-19T00:43:43;3.70;;;2.17;;
48241;SDS011;34041;51.812;4.622;2023-03-19T00:46:44;4.35;;;2.38;;
48241;SDS011;34041;51.812;4.622;2023-03-19T00:49:44;2.97;;;2.05;;
48241;SDS011;34041;51.812;4.622;2023-03-19T00:52:44;3.47;;;1.87;;
48241;SDS011;34041;51.812;4.622;2023-03-19T00:55:45;2.60;;;1.50;;
48241;SDS011;34041;51.812;4.622;2023-03-19T00:58:45;3.33;;;1.95;;
48241;SDS011;34041;51.812;4.622;2023-03-19T01:01:45;3.58;;;1.88;;
48241;SDS011;34041;51.812;4.622;2023-03-19T01:04:49;3.47;;;1.40;;
48241;SDS011;34041;51.812;4.622;2023-03-19T01:07:49;3.80;;;2.05;;
48241;SDS011;34041;51.812;4.622;2023-03-19T01:10:50;3.55;;;2.40;;
48241;SDS011;34041;51.812;4.622;2023-03-19T01:13:50;2.42;;;1.88;;
48241;SDS011;34041;51.812;4.622;2023-03-19T01:16:50;3.37;;;2.03;;
48241;SDS011;34041;51.812;4.622;2023-03-19T01:19:51;4.00;;;1.87;;
48241;SDS011;34041;51.812;4.622;2023-03-19T01:22:51;2.60;;;1.85;;
48241;SDS011;34041;51.812;4.622;2023-03-19T01:25:51;3.30;;;2.23;;
48241;SDS011;34041;51.812;4.622;2023-03-19T01:28:51;2.87;;;1.80;;
48241;SDS011;34041;51.812;4.622;2023-03-19T01:31:52;3.83;;;2.00;;
48241;SDS011;34041;51.812;4.622;2023-03-19T01:34:52;4.13;;;1.87;;
48241;SDS011;34041;51.812;4.622;2023-03-19T01:37:52;2.53;;;1.80;;
48241;SDS011;34041;51.812;4.622;2023-03-19T01:40:53;2.47;;;1.37;;
48241;SDS011;34041;51.812;4.622;2023-03-19T01:43:53;2.38;;;1.70;;
48241;SDS011;34041;51.812;4.622;2023-03-19T01:46:53;3.40;;;1.93;;
48241;SDS011;34041;51.812;4.622;2023-03-19T01:49:54;2.92;;;1.70;;
48241;SDS011;34041;51.812;4.622;2023-03-19T01:52:55;3.53;;;1.98;;
48241;SDS011;34041;51.812;4.622;2023-03-19T01:55:57;3.80;;;2.15;;
48241;SDS011;34041;51.812;4.622;2023-03-19T01:58:59;4.10;;;2.30;;
48241;SDS011;34041;51.812;4.622;2023-03-19T02:05:20;2.95;;;2.03;;
48241;SDS011;34041;51.812;4.622;2023-03-19T02:11:25;2.97;;;1.73;;
48241;SDS011;34041;51.812;4.622;2023-03-19T02:14:25;4.03;;;2.45;;
48241;SDS011;34041;51.812;4.622;2023-03-19T02:17:26;4.47;;;2.90;;
48241;SDS011;34041;51.812;4.622;2023-03-19T02:20:34;3.45;;;2.42;;
48241;SDS011;34041;51.812;4.622;2023-03-19T02:26:54;4.70;;;2.15;;
48241;SDS011;34041;51.812;4.622;2023-03-19T02:29:55;8.00;;;3.33;;
48241;SDS011;34041;51.812;4.622;2023-03-19T02:32:55;4.30;;;2.77;;
48241;SDS011;34041;51.812;4.622;2023-03-19T02:35:55;5.27;;;3.30;;
48241;SDS011;34041;51.812;4.622;2023-03-19T02:38:57;3.95;;;3.35;;
48241;SDS011;34041;51.812;4.622;2023-03-19T02:41:59;4.63;;;3.22;;
48241;SDS011;34041;51.812;4.622;2023-03-19T02:45:00;3.38;;;2.78;;
48241;SDS011;34041;51.812;4.622;2023-03-19T02:48:01;4.97;;;3.47;;
48241;SDS011;34041;51.812;4.622;2023-03-19T02:51:01;4.43;;;3.50;;
48241;SDS011;34041;51.812;4.622;2023-03-19T02:54:02;4.03;;;3.40;;
48241;SDS011;34041;51.812;4.622;2023-03-19T02:57:02;4.60;;;3.45;;
48241;SDS011;34041;51.812;4.622;2023-03-19T03:00:03;4.72;;;3.00;;
48241;SDS011;34041;51.812;4.622;2023-03-19T03:03:04;4.55;;;3.13;;
48241;SDS011;34041;51.812;4.622;2023-03-19T03:06:05;4.55;;;3.83;;
48241;SDS011;34041;51.812;4.622;2023-03-19T03:09:06;5.35;;;4.18;;
48241;SDS011;34041;51.812;4.622;2023-03-19T03:12:06;4.63;;;4.23;;
48241;SDS011;34041;51.812;4.622;2023-03-19T03:15:07;8.73;;;4.25;;
48241;SDS011;34041;51.812;4.622;2023-03-19T03:18:07;6.65;;;4.88;;
48241;SDS011;34041;51.812;4.622;2023-03-19T03:21:08;6.17;;;4.93;;
48241;SDS011;34041;51.812;4.622;2023-03-19T03:24:09;8.02;;;4.68;;
48241;SDS011;34041;51.812;4.622;2023-03-19T03:27:09;6.40;;;4.43;;
48241;SDS011;34041;51.812;4.622;2023-03-19T03:30:10;4.95;;;4.43;;
48241;SDS011;34041;51.812;4.622;2023-03-19T03:33:11;4.90;;;3.92;;
48241;SDS011;34041;51.812;4.622;2023-03-19T03:36:11;5.50;;;4.60;;
48241;SDS011;34041;51.812;4.622;2023-03-19T03:39:11;5.05;;;3.95;;
48241;SDS011;34041;51.812;4.622;2023-03-19T03:42:12;6.03;;;4.15;;
48241;SDS011;34041;51.812;4.622;2023-03-19T03:45:13;5.97;;;4.38;;
48241;SDS011;34041;51.812;4.622;2023-03-19T03:48:13;4.85;;;4.30;;
48241;SDS011;34041;51.812;4.622;2023-03-19T03:51:13;4.47;;;4.05;;
48241;SDS011;34041;51.812;4.622;2023-03-19T03:54:14;9.13;;;5.45;;
48241;SDS011;34041;51.812;4.622;2023-03-19T03:57:14;6.15;;;5.18;;
48241;SDS011;34041;51.812;4.622;2023-03-19T04:00:14;5.72;;;5.07;;
48241;SDS011;34041;51.812;4.622;2023-03-19T04:03:15;5.43;;;4.93;;
48241;SDS011;34041;51.812;4.622;2023-03-19T04:06:16;5.93;;;5.32;;
48241;SDS011;34041;51.812;4.622;2023-03-19T04:09:17;5.90;;;5.30;;
48241;SDS011;34041;51.812;4.622;2023-03-19T04:12:18;7.93;;;6.03;;
48241;SDS011;34041;51.812;4.622;2023-03-19T04:15:18;7.33;;;6.13;;
48241;SDS011;34041;51.812;4.622;2023-03-19T04:18:19;8.13;;;7.13;;
48241;SDS011;34041;51.812;4.622;2023-03-19T04:21:19;7.82;;;6.55;;
48241;SDS011;34041;51.812;4.622;2023-03-19T04:24:20;7.18;;;6.25;;
48241;SDS011;34041;51.812;4.622;2023-03-19T04:27:20;8.65;;;7.50;;
48241;SDS011;34041;51.812;4.622;2023-03-19T04:30:21;7.53;;;6.22;;
48241;SDS011;34041;51.812;4.622;2023-03-19T04:33:21;9.27;;;8.23;;
48241;SDS011;34041;51.812;4.622;2023-03-19T04:36:21;10.07;;;8.97;;
48241;SDS011;34041;51.812;4.622;2023-03-19T04:39:21;9.57;;;8.45;;
48241;SDS011;34041;51.812;4.622;2023-03-19T04:42:22;9.48;;;8.50;;
48241;SDS011;34041;51.812;4.622;2023-03-19T04:45:22;10.38;;;9.38;;
48241;SDS011;34041;51.812;4.622;2023-03-19T04:48:22;8.10;;;7.33;;
48241;SDS011;34041;51.812;4.622;2023-03-19T04:51:22;9.45;;;8.45;;
48241;SDS011;34041;51.812;4.622;2023-03-19T04:54:23;11.02;;;9.10;;
48241;SDS011;34041;51.812;4.622;2023-03-19T04:57:24;10.13;;;9.13;;
48241;SDS011;34041;51.812;4.622;2023-03-19T05:00:24;10.50;;;9.38;;
48241;SDS011;34041;51.812;4.622;2023-03-19T05:03:25;9.95;;;8.95;;
48241;SDS011;34041;51.812;4.622;2023-03-19T05:06:25;11.07;;;9.37;;
48241;SDS011;34041;51.812;4.622;2023-03-19T05:09:26;9.77;;;8.73;;
48241;SDS011;34041;51.812;4.622;2023-03-19T05:12:26;11.10;;;9.95;;
48241;SDS011;34041;51.812;4.622;2023-03-19T05:15:26;12.07;;;9.80;;
48241;SDS011;34041;51.812;4.622;2023-03-19T05:18:26;10.25;;;9.25;;
48241;SDS011;34041;51.812;4.622;2023-03-19T05:21:28;10.38;;;9.38;;
48241;SDS011;34041;51.812;4.622;2023-03-19T05:24:28;9.67;;;8.77;;
48241;SDS011;34041;51.812;4.622;2023-03-19T05:27:28;10.70;;;8.93;;
48241;SDS011;34041;51.812;4.622;2023-03-19T05:30:28;10.77;;;9.60;;
48241;SDS011;34041;51.812;4.622;2023-03-19T05:33:29;9.77;;;8.77;;
48241;SDS011;34041;51.812;4.622;2023-03-19T05:36:29;10.32;;;9.40;;
48241;SDS011;34041;51.812;4.622;2023-03-19T05:39:29;10.93;;;9.70;;
48241;SDS011;34041;51.812;4.622;2023-03-19T05:42:30;10.93;;;9.82;;
48241;SDS011;34041;51.812;4.622;2023-03-19T05:45:30;10.15;;;9.15;;
48241;SDS011;34041;51.812;4.622;2023-03-19T05:48:30;10.13;;;8.97;;
48241;SDS011;34041;51.812;4.622;2023-03-19T05:51:31;10.55;;;9.55;;
48241;SDS011;34041;51.812;4.622;2023-03-19T05:54:31;11.43;;;10.23;;
48241;SDS011;34041;51.812;4.622;2023-03-19T05:57:31;11.07;;;9.43;;
48241;SDS011;34041;51.812;4.622;2023-03-19T06:00:31;11.10;;;10.00;;
48241;SDS011;34041;51.812;4.622;2023-03-19T06:03:32;11.00;;;9.90;;
48241;SDS011;34041;51.812;4.622;2023-03-19T06:06:32;11.37;;;10.27;;
48241;SDS011;34041;51.812;4.622;2023-03-19T06:09:32;11.70;;;10.48;;
48241;SDS011;34041;51.812;4.622;2023-03-19T06:12:33;12.30;;;11.10;;
48241;SDS011;34041;51.812;4.622;2023-03-19T06:15:33;12.13;;;10.60;;
48241;SDS011;34041;51.812;4.622;2023-03-19T06:18:33;11.70;;;10.70;;
48241;SDS011;34041;51.812;4.622;2023-03-19T06:21:33;11.33;;;10.33;;
48241;SDS011;34041;51.812;4.622;2023-03-19T06:24:34;12.13;;;11.03;;
48241;SDS011;34041;51.812;4.622;2023-03-19T06:27:34;11.48;;;10.38;;
48241;SDS011;34041;51.812;4.622;2023-03-19T06:30:34;11.70;;;10.60;;
48241;SDS011;34041;51.812;4.622;2023-03-19T06:33:35;11.02;;;9.93;;
48241;SDS011;34041;51.812;4.622;2023-03-19T06:36:36;12.20;;;10.85;;
48241;SDS011;34041;51.812;4.622;2023-03-19T06:39:36;13.02;;;11.73;;
48241;SDS011;34041;51.812;4.622;2023-03-19T06:42:37;12.23;;;11.02;;
48241;SDS011;34041;51.812;4.622;2023-03-19T06:45:37;11.73;;;10.52;;
48241;SDS011;34041;51.812;4.622;2023-03-19T06:48:37;12.63;;;11.37;;
48241;SDS011;34041;51.812;4.622;2023-03-19T06:51:38;11.80;;;10.35;;
48241;SDS011;34041;51.812;4.622;2023-03-19T06:54:38;12.97;;;11.67;;
48241;SDS011;34041;51.812;4.622;2023-03-19T06:57:38;11.90;;;10.60;;
48241;SDS011;34041;51.812;4.622;2023-03-19T07:00:38;11.35;;;10.15;;
48241;SDS011;34041;51.812;4.622;2023-03-19T07:03:40;11.30;;;10.25;;
48241;SDS011;34041;51.812;4.622;2023-03-19T07:06:40;10.47;;;9.37;;
48241;SDS011;34041;51.812;4.622;2023-03-19T07:09:40;12.15;;;10.73;;
48241;SDS011;34041;51.812;4.622;2023-03-19T07:12:40;13.63;;;11.27;;
48241;SDS011;34041;51.812;4.622;2023-03-19T07:15:41;10.57;;;9.47;;
48241;SDS011;34041;51.812;4.622;2023-03-19T07:18:41;11.23;;;10.23;;
48241;SDS011;34041;51.812;4.622;2023-03-19T07:21:41;10.67;;;9.60;;
48241;SDS011;34041;51.812;4.622;2023-03-19T07:24:42;13.02;;;11.77;;
48241;SDS011;34041;51.812;4.622;2023-03-19T07:27:43;16.08;;;10.68;;
48241;SDS011;34041;51.812;4.622;2023-03-19T07:30:43;11.05;;;9.75;;
48241;SDS011;34041;51.812;4.622;2023-03-19T07:33:43;12.30;;;11.00;;
48241;SDS011;34041;51.812;4.622;2023-03-19T07:36:44;13.10;;;11.68;;
48241;SDS011;34041;51.812;4.622;2023-03-19T07:39:44;12.07;;;10.87;;
48241;SDS011;34041;51.812;4.622;2023-03-19T07:42:45;12.65;;;10.48;;
48241;SDS011;34041;51.812;4.622;2023-03-19T07:45:45;12.18;;;10.88;;
48241;SDS011;34041;51.812;4.622;2023-03-19T07:48:45;12.50;;;10.70;;
48241;SDS011;34041;51.812;4.622;2023-03-19T07:51:46;14.07;;;11.53;;
48241;SDS011;34041;51.812;4.622;2023-03-19T07:54:46;13.67;;;11.23;;
48241;SDS011;34041;51.812;4.622;2023-03-19T07:57:46;12.60;;;11.13;;
48241;SDS011;34041;51.812;4.622;2023-03-19T08:00:46;12.60;;;10.73;;
48241;SDS011;34041;51.812;4.622;2023-03-19T08:03:47;12.43;;;11.10;;
48241;SDS011;34041;51.812;4.622;2023-03-19T08:06:50;13.90;;;11.57;;
48241;SDS011;34041;51.812;4.622;2023-03-19T08:09:50;14.40;;;11.80;;
48241;SDS011;34041;51.812;4.622;2023-03-19T08:12:50;14.27;;;10.70;;
48241;SDS011;34041;51.812;4.622;2023-03-19T08:15:51;14.43;;;11.20;;
48241;SDS011;34041;51.812;4.622;2023-03-19T08:18:52;13.88;;;11.45;;
48241;SDS011;34041;51.812;4.622;2023-03-19T08:21:52;12.67;;;11.37;;
48241;SDS011;34041;51.812;4.622;2023-03-19T08:24:53;13.40;;;11.38;;
48241;SDS011;34041;51.812;4.622;2023-03-19T08:27:53;13.67;;;12.10;;
48241;SDS011;34041;51.812;4.622;2023-03-19T08:30:53;14.63;;;11.13;;
48241;SDS011;34041;51.812;4.622;2023-03-19T08:33:55;13.68;;;10.63;;
48241;SDS011;34041;51.812;4.622;2023-03-19T08:36:55;14.93;;;11.02;;
48241;SDS011;34041;51.812;4.622;2023-03-19T08:39:55;15.07;;;11.73;;
48241;SDS011;34041;51.812;4.622;2023-03-19T08:42:55;14.27;;;11.80;;
48241;SDS011;34041;51.812;4.622;2023-03-19T08:45:56;17.58;;;11.82;;
48241;SDS011;34041;51.812;4.622;2023-03-19T08:48:56;17.88;;;12.52;;
48241;SDS011;34041;51.812;4.622;2023-03-19T08:51:56;17.95;;;11.93;;
48241;SDS011;34041;51.812;4.622;2023-03-19T08:54:57;19.93;;;12.70;;
48241;SDS011;34041;51.812;4.622;2023-03-19T08:57:57;17.37;;;13.50;;
48241;SDS011;34041;51.812;4.622;2023-03-19T09:01:01;17.53;;;13.80;;
48241;SDS011;34041;51.812;4.622;2023-03-19T09:04:02;17.65;;;12.60;;
48241;SDS011;34041;51.812;4.622;2023-03-19T09:07:02;19.50;;;13.23;;
48241;SDS011;34041;51.812;4.622;2023-03-19T09:10:02;17.20;;;12.80;;
48241;SDS011;34041;51.812;4.622;2023-03-19T09:13:03;17.25;;;12.02;;
48241;SDS011;34041;51.812;4.622;2023-03-19T09:16:03;18.50;;;14.23;;
48241;SDS011;34041;51.812;4.622;2023-03-19T09:19:04;19.70;;;14.02;;
48241;SDS011;34041;51.812;4.622;2023-03-19T09:22:04;17.70;;;12.60;;
48241;SDS011;34041;51.812;4.622;2023-03-19T09:25:05;20.25;;;12.48;;
48241;SDS011;34041;51.812;4.622;2023-03-19T09:28:05;15.30;;;12.60;;
48241;SDS011;34041;51.812;4.622;2023-03-19T09:31:08;20.05;;;13.23;;
48241;SDS011;34041;51.812;4.622;2023-03-19T09:34:10;17.48;;;11.70;;
48241;SDS011;34041;51.812;4.622;2023-03-19T09:37:12;20.10;;;13.45;;
48241;SDS011;34041;51.812;4.622;2023-03-19T09:40:18;23.50;;;13.60;;
48241;SDS011;34041;51.812;4.622;2023-03-19T09:46:26;19.30;;;14.48;;
48241;SDS011;34041;51.812;4.622;2023-03-19T09:53:32;18.60;;;13.27;;
48241;SDS011;34041;51.812;4.622;2023-03-19T09:55:58;19.15;;;13.38;;
48241;SDS011;34041;51.812;4.622;2023-03-19T09:58:59;23.90;;;13.88;;
48241;SDS011;34041;51.812;4.622;2023-03-19T10:02:05;19.63;;;14.73;;
48241;SDS011;34041;51.812;4.622;2023-03-19T10:09:03;17.27;;;15.30;;
48241;SDS011;34041;51.812;4.622;2023-03-19T10:12:09;20.85;;;13.75;;
48241;SDS011;34041;51.812;4.622;2023-03-19T10:15:17;22.52;;;14.93;;
48241;SDS011;34041;51.812;4.622;2023-03-19T10:18:20;18.58;;;13.10;;
48241;SDS011;34041;51.812;4.622;2023-03-19T10:24:42;16.92;;;12.15;;
48241;SDS011;34041;51.812;4.622;2023-03-19T10:27:44;17.27;;;13.50;;
48241;SDS011;34041;51.812;4.622;2023-03-19T10:30:47;17.33;;;13.98;;
48241;SDS011;34041;51.812;4.622;2023-03-19T10:37:15;18.80;;;13.55;;
48241;SDS011;34041;51.812;4.622;2023-03-19T10:40:20;19.13;;;13.75;;
48241;SDS011;34041;51.812;4.622;2023-03-19T10:43:21;18.73;;;14.63;;
48241;SDS011;34041;51.812;4.622;2023-03-19T10:46:22;19.88;;;14.27;;
48241;SDS011;34041;51.812;4.622;2023-03-19T10:49:23;16.15;;;13.35;;
48241;SDS011;34041;51.812;4.622;2023-03-19T10:52:24;19.33;;;14.50;;
48241;SDS011;34041;51.812;4.622;2023-03-19T10:55:29;16.92;;;13.77;;
48241;SDS011;34041;51.812;4.622;2023-03-19T10:58:30;19.50;;;12.43;;
48241;SDS011;34041;51.812;4.622;2023-03-19T11:01:34;18.48;;;14.45;;
48241;SDS011;34041;51.812;4.622;2023-03-19T11:04:34;17.38;;;12.50;;
48241;SDS011;34041;51.812;4.622;2023-03-19T11:07:35;17.97;;;13.87;;
48241;SDS011;34041;51.812;4.622;2023-03-19T11:10:35;20.27;;;13.93;;
48241;SDS011;34041;51.812;4.622;2023-03-19T11:13:36;19.88;;;15.10;;
48241;SDS011;34041;51.812;4.622;2023-03-19T11:19:57;18.67;;;14.30;;
48241;SDS011;34041;51.812;4.622;2023-03-19T11:22:57;19.80;;;14.43;;
48241;SDS011;34041;51.812;4.622;2023-03-19T11:26:01;17.20;;;13.93;;
48241;SDS011;34041;51.812;4.622;2023-03-19T11:29:03;17.67;;;14.30;;
48241;SDS011;34041;51.812;4.622;2023-03-19T11:38:24;19.70;;;14.95;;
48241;SDS011;34041;51.812;4.622;2023-03-19T11:44:34;18.10;;;13.38;;
48241;SDS011;34041;51.812;4.622;2023-03-19T11:53:51;21.70;;;17.60;;
48241;SDS011;34041;51.812;4.622;2023-03-19T11:57:03;23.33;;;15.75;;
48241;SDS011;34041;51.812;4.622;2023-03-19T12:19:26;19.70;;;15.55;;
48241;SDS011;34041;51.812;4.622;2023-03-19T12:22:44;22.02;;;14.88;;
48241;SDS011;34041;51.812;4.622;2023-03-19T12:25:58;17.42;;;15.50;;
48241;SDS011;34041;51.812;4.622;2023-03-19T12:29:16;18.95;;;14.40;;
48241;SDS011;34041;51.812;4.622;2023-03-19T12:32:26;22.52;;;16.23;;
48241;SDS011;34041;51.812;4.622;2023-03-19T12:35:30;21.45;;;16.98;;
48241;SDS011;34041;51.812;4.622;2023-03-19T12:38:48;17.98;;;15.23;;
48241;SDS011;34041;51.812;4.622;2023-03-19T12:41:50;19.17;;;15.55;;
48241;SDS011;34041;51.812;4.622;2023-03-19T12:44:52;20.25;;;15.52;;
48241;SDS011;34041;51.812;4.622;2023-03-19T12:47:56;19.70;;;14.82;;
48241;SDS011;34041;51.812;4.622;2023-03-19T12:50:58;20.05;;;15.63;;
48241;SDS011;34041;51.812;4.622;2023-03-19T12:54:11;18.25;;;15.02;;
48241;SDS011;34041;51.812;4.622;2023-03-19T13:00:25;18.35;;;14.80;;
48241;SDS011;34041;51.812;4.622;2023-03-19T13:03:30;17.08;;;14.23;;
48241;SDS011;34041;51.812;4.622;2023-03-19T13:06:36;17.73;;;13.93;;
48241;SDS011;34041;51.812;4.622;2023-03-19T13:09:39;19.48;;;15.05;;
48241;SDS011;34041;51.812;4.622;2023-03-19T13:12:42;16.00;;;13.95;;
48241;SDS011;34041;51.812;4.622;2023-03-19T13:15:45;19.60;;;15.30;;
48241;SDS011;34041;51.812;4.622;2023-03-19T13:18:57;19.33;;;14.50;;
48241;SDS011;34041;51.812;4.622;2023-03-19T13:22:02;19.13;;;15.45;;
48241;SDS011;34041;51.812;4.622;2023-03-19T13:25:03;15.73;;;12.75;;
48241;SDS011;34041;51.812;4.622;2023-03-19T13:28:09;16.15;;;14.32;;
48241;SDS011;34041;51.812;4.622;2023-03-19T13:31:19;17.17;;;15.38;;
48241;SDS011;34041;51.812;4.622;2023-03-19T13:34:23;17.55;;;15.57;;
48241;SDS011;34041;51.812;4.622;2023-03-19T13:37:24;17.17;;;13.93;;
48241;SDS011;34041;51.812;4.622;2023-03-19T13:46:35;16.87;;;14.33;;
48241;SDS011;34041;51.812;4.622;2023-03-19T13:49:36;15.85;;;12.57;;
48241;SDS011;34041;51.812;4.622;2023-03-19T13:55:53;15.07;;;13.23;;
48241;SDS011;34041;51.812;4.622;2023-03-19T14:05:19;12.63;;;11.32;;
48241;SDS011;34041;51.812;4.622;2023-03-19T14:08:24;16.75;;;12.18;;
48241;SDS011;34041;51.812;4.622;2023-03-19T14:11:29;12.88;;;11.35;;
48241;SDS011;34041;51.812;4.622;2023-03-19T14:14:30;12.85;;;11.52;;
48241;SDS011;34041;51.812;4.622;2023-03-19T14:17:31;10.63;;;9.43;;
48241;SDS011;34041;51.812;4.622;2023-03-19T14:20:33;11.93;;;10.60;;
48241;SDS011;34041;51.812;4.622;2023-03-19T14:23:36;13.48;;;11.57;;
48241;SDS011;34041;51.812;4.622;2023-03-19T14:26:40;13.48;;;11.20;;
48241;SDS011;34041;51.812;4.622;2023-03-19T14:29:42;11.25;;;10.07;;
48241;SDS011;34041;51.812;4.622;2023-03-19T14:32:43;12.40;;;11.07;;
48241;SDS011;34041;51.812;4.622;2023-03-19T14:35:46;12.07;;;9.82;;
48241;SDS011;34041;51.812;4.622;2023-03-19T14:39:31;10.70;;;9.40;;
48241;SDS011;34041;51.812;4.622;2023-03-19T14:54:35;12.83;;;9.70;;
48241;SDS011;34041;51.812;4.622;2023-03-19T14:57:36;8.82;;;7.93;;
48241;SDS011;34041;51.812;4.622;2023-03-19T15:00:44;11.57;;;7.57;;
48241;SDS011;34041;51.812;4.622;2023-03-19T15:03:44;10.82;;;8.85;;
48241;SDS011;34041;51.812;4.622;2023-03-19T15:06:48;10.50;;;8.32;;
48241;SDS011;34041;51.812;4.622;2023-03-19T15:19:09;11.88;;;9.18;;
48241;SDS011;34041;51.812;4.622;2023-03-19T15:22:14;9.98;;;8.10;;
48241;SDS011;34041;51.812;4.622;2023-03-19T15:25:14;8.18;;;7.22;;
48241;SDS011;34041;51.812;4.622;2023-03-19T15:28:15;10.63;;;7.95;;
48241;SDS011;34041;51.812;4.622;2023-03-19T15:31:17;8.63;;;7.40;;
48241;SDS011;34041;51.812;4.622;2023-03-19T15:34:25;12.25;;;9.75;;
48241;SDS011;34041;51.812;4.622;2023-03-19T15:37:26;11.02;;;8.23;;
48241;SDS011;34041;51.812;4.622;2023-03-19T15:40:28;11.85;;;8.18;;
48241;SDS011;34041;51.812;4.622;2023-03-19T15:43:29;12.07;;;8.43;;
48241;SDS011;34041;51.812;4.622;2023-03-19T15:46:31;11.15;;;7.50;;
48241;SDS011;34041;51.812;4.622;2023-03-19T15:49:39;9.50;;;6.68;;
48241;SDS011;34041;51.812;4.622;2023-03-19T15:52:41;9.70;;;7.57;;
48241;SDS011;34041;51.812;4.622;2023-03-19T15:55:41;9.75;;;6.45;;
48241;SDS011;34041;51.812;4.622;2023-03-19T15:58:46;9.70;;;7.75;;
48241;SDS011;34041;51.812;4.622;2023-03-19T16:01:47;10.05;;;6.80;;
48241;SDS011;34041;51.812;4.622;2023-03-19T16:04:48;8.27;;;6.20;;
48241;SDS011;34041;51.812;4.622;2023-03-19T16:07:51;7.75;;;6.45;;
48241;SDS011;34041;51.812;4.622;2023-03-19T16:10:53;10.25;;;6.47;;
48241;SDS011;34041;51.812;4.622;2023-03-19T16:13:58;9.02;;;6.13;;
48241;SDS011;34041;51.812;4.622;2023-03-19T16:17:00;8.52;;;5.93;;
48241;SDS011;34041;51.812;4.622;2023-03-19T16:20:01;8.80;;;6.30;;
48241;SDS011;34041;51.812;4.622;2023-03-19T16:23:01;8.80;;;6.13;;
48241;SDS011;34041;51.812;4.622;2023-03-19T16:26:03;11.55;;;6.85;;
48241;SDS011;34041;51.812;4.622;2023-03-19T16:38:16;7.73;;;5.83;;
48241;SDS011;34041;51.812;4.622;2023-03-19T16:44:17;9.32;;;6.05;;
48241;SDS011;34041;51.812;4.622;2023-03-19T16:47:17;8.60;;;5.93;;
48241;SDS011;34041;51.812;4.622;2023-03-19T16:50:19;8.98;;;5.57;;
48241;SDS011;34041;51.812;4.622;2023-03-19T16:56:20;7.15;;;4.53;;
48241;SDS011;34041;51.812;4.622;2023-03-19T16:59:22;8.00;;;5.20;;
48241;SDS011;34041;51.812;4.622;2023-03-19T17:05:26;7.28;;;4.78;;
48241;SDS011;34041;51.812;4.622;2023-03-19T17:08:26;6.20;;;4.38;;
48241;SDS011;34041;51.812;4.622;2023-03-19T17:11:27;7.63;;;5.82;;
48241;SDS011;34041;51.812;4.622;2023-03-19T17:14:28;7.45;;;5.03;;
48241;SDS011;34041;51.812;4.622;2023-03-19T17:17:29;8.13;;;5.65;;
48241;SDS011;34041;51.812;4.622;2023-03-19T17:20:31;6.22;;;4.55;;
48241;SDS011;34041;51.812;4.622;2023-03-19T17:23:32;7.75;;;5.20;;
48241;SDS011;34041;51.812;4.622;2023-03-19T17:26:33;8.00;;;4.97;;
48241;SDS011;34041;51.812;4.622;2023-03-19T17:29:33;7.05;;;4.68;;
48241;SDS011;34041;51.812;4.622;2023-03-19T17:32:34;9.30;;;4.70;;
48241;SDS011;34041;51.812;4.622;2023-03-19T17:35:34;9.63;;;5.03;;
48241;SDS011;34041;51.812;4.622;2023-03-19T17:38:35;6.97;;;4.47;;
48241;SDS011;34041;51.812;4.622;2023-03-19T17:41:35;10.57;;;4.80;;
48241;SDS011;34041;51.812;4.622;2023-03-19T17:44:35;9.90;;;6.13;;
48241;SDS011;34041;51.812;4.622;2023-03-19T17:47:36;10.73;;;5.73;;
48241;SDS011;34041;51.812;4.622;2023-03-19T17:50:36;9.07;;;5.47;;
48241;SDS011;34041;51.812;4.622;2023-03-19T17:53:36;12.05;;;5.65;;
48241;SDS011;34041;51.812;4.622;2023-03-19T17:56:37;12.30;;;6.00;;
48241;SDS011;34041;51.812;4.622;2023-03-19T17:59:37;10.25;;;4.63;;
48241;SDS011;34041;51.812;4.622;2023-03-19T18:02:37;8.93;;;5.05;;
48241;SDS011;34041;51.812;4.622;2023-03-19T18:05:40;12.80;;;5.63;;
48241;SDS011;34041;51.812;4.622;2023-03-19T18:08:40;11.50;;;5.53;;
48241;SDS011;34041;51.812;4.622;2023-03-19T18:11:40;9.85;;;4.65;;
48241;SDS011;34041;51.812;4.622;2023-03-19T18:14:40;8.40;;;5.27;;
48241;SDS011;34041;51.812;4.622;2023-03-19T18:17:42;11.10;;;5.10;;
48241;SDS011;34041;51.812;4.622;2023-03-19T18:20:43;10.30;;;5.38;;
48241;SDS011;34041;51.812;4.622;2023-03-19T18:23:44;12.10;;;5.50;;
48241;SDS011;34041;51.812;4.622;2023-03-19T18:26:45;11.27;;;5.00;;
48241;SDS011;34041;51.812;4.622;2023-03-19T18:29:45;11.90;;;5.40;;
48241;SDS011;34041;51.812;4.622;2023-03-19T18:32:46;9.57;;;6.10;;
48241;SDS011;34041;51.812;4.622;2023-03-19T18:35:48;9.13;;;5.57;;
48241;SDS011;34041;51.812;4.622;2023-03-19T18:38:48;12.17;;;6.07;;
48241;SDS011;34041;51.812;4.622;2023-03-19T18:41:48;7.40;;;4.35;;
48241;SDS011;34041;51.812;4.622;2023-03-19T18:44:49;8.80;;;4.82;;
48241;SDS011;34041;51.812;4.622;2023-03-19T18:47:49;9.63;;;4.88;;
48241;SDS011;34041;51.812;4.622;2023-03-19T18:50:50;13.55;;;5.25;;
48241;SDS011;34041;51.812;4.622;2023-03-19T18:53:50;8.82;;;4.55;;
48241;SDS011;34041;51.812;4.622;2023-03-19T18:56:50;10.83;;;5.27;;
48241;SDS011;34041;51.812;4.622;2023-03-19T18:59:53;8.50;;;4.97;;
48241;SDS011;34041;51.812;4.622;2023-03-19T19:02:54;10.63;;;5.50;;
48241;SDS011;34041;51.812;4.622;2023-03-19T19:05:55;8.18;;;4.35;;
48241;SDS011;34041;51.812;4.622;2023-03-19T19:08:55;6.68;;;4.78;;
48241;SDS011;34041;51.812;4.622;2023-03-19T19:11:56;7.60;;;4.35;;
48241;SDS011;34041;51.812;4.622;2023-03-19T19:15:00;8.07;;;4.45;;
48241;SDS011;34041;51.812;4.622;2023-03-19T19:21:03;6.10;;;4.40;;
48241;SDS011;34041;51.812;4.622;2023-03-19T19:24:03;9.40;;;5.22;;
48241;SDS011;34041;51.812;4.622;2023-03-19T19:27:03;7.85;;;4.15;;
48241;SDS011;34041;51.812;4.622;2023-03-19T19:30:05;8.38;;;4.10;;
48241;SDS011;34041;51.812;4.622;2023-03-19T19:33:18;6.32;;;3.92;;
48241;SDS011;34041;51.812;4.622;2023-03-19T19:36:19;6.28;;;4.32;;
48241;SDS011;34041;51.812;4.622;2023-03-19T19:39:19;7.95;;;5.18;;
48241;SDS011;34041;51.812;4.622;2023-03-19T19:42:20;7.88;;;4.40;;
48241;SDS011;34041;51.812;4.622;2023-03-19T19:48:28;8.93;;;4.60;;
48241;SDS011;34041;51.812;4.622;2023-03-19T19:51:29;6.18;;;3.88;;
48241;SDS011;34041;51.812;4.622;2023-03-19T19:54:29;6.20;;;4.18;;
48241;SDS011;34041;51.812;4.622;2023-03-19T19:57:30;10.37;;;4.37;;
48241;SDS011;34041;51.812;4.622;2023-03-19T20:00:30;7.40;;;3.67;;
48241;SDS011;34041;51.812;4.622;2023-03-19T20:03:32;6.35;;;4.45;;
48241;SDS011;34041;51.812;4.622;2023-03-19T20:06:32;5.93;;;3.80;;
48241;SDS011;34041;51.812;4.622;2023-03-19T20:09:32;4.67;;;3.40;;